UKDR/KWG METAR and TAF weather

Enter ICAO airport designator
Station Type Date Time Source
UKDR METAR 2019/04/26 03:30 UTC NOAA

UKDR 260330Z 00000MPS CAVOK 08/01 Q1023 R18/09//70 NOSIG


Station Type Date Time Source
UKDR Decoded METAR 2019/04/26 03:30 UTC NOAA

Krivyy Rih / Dnipropetrovs'k, Ukraine (UKDR) 48-03N 033-13-12E
Apr 25, 2019 - 11:30 PM EDT / 2019.04.26 0330 UTC
Wind: Calm:0
Visibility: greater than 7 mile(s):0
Temperature: 46 F (8 C)
Dew Point: 33 F (1 C)
Relative Humidity: 61%
Pressure (altimeter): 30.21 in. Hg (1023 hPa)
ob: UKDR 260330Z 00000MPS CAVOK 08/01 Q1023 R18/09//70 NOSIG
cycle: 3

Station Type Date Time Source
UKDR TAF 2019/04/25 18:00 UTC NOAA

TAF UKDR 251703Z 2518/2618 VRB01MPS 9999 SCT030
BECMG 2606/2608 22004MPS

Example: see airport list